Cassidy Curve, MT

10:58 PM MST op 17 januari 2017 (GMT -0700)
MSRYM8 | | Change Station

Hoogte 4555 ft 48.74 °N, 113.43 °W | Updated 2 minutes ago

Gedeeltelijk bewolkt
Gedeeltelijk bewolkt
46.0 °F
Voelt als 44 °F
N
5.0
Wind Variabel Wind van ZZW
Gusts 27.0 mijl/u

Vandaag
Hoog -- | Laag -- °F
--% Kans op neerslag
Gisteren
Hoog -- | Laag -- °F
Precip. -- inches
Druk 29.62 inches
Zicht 10.0 mijlen
Wolken Helder
Gevoelstemperatuur 44 °F
Dauwpunt 14 °F
Vochtigheid 27%
Neerslag 0.00 inches
Dikte sneeuw Niet beschikbaar.
8:20 AM 5:08 PM
Afnemende maan, 66% visible
METAR KCTB 180556Z AUTO 20015KT 10SM CLR 06/M04 A2960 RMK AO2 PK WND 24039/0517 WSHFT 0451 SLP031 T00611044 10083 20033 58010
Druk 29.62 inches
Zicht 10.0 mijlen
Wolken Helder
Gevoelstemperatuur 44 °F
Dauwpunt 14 °F
Vochtigheid 27%
Neerslag 0.00 inches
Dikte sneeuw Niet beschikbaar.
8:20 AM 5:08 PM
Afnemende maan, 66% visible
METAR KCTB 180556Z AUTO 20015KT 10SM CLR 06/M04 A2960 RMK AO2 PK WND 24039/0517 WSHFT 0451 SLP031 T00611044 10083 20033 58010

Get Your Daily Forecast Email!

Thanks for signing up!

Be on the lookout for a verification email in your inbox.

You'll start receiving the daily forecast at 8 AM.

×

10-Day Weather Forecast

Almanac

Astronomie

Jan. 17, 2017 Opkomst Ondergang
Werkelijke tijd
Burgerlijke schemering
Nautische schemering
Astronomische schemering
Maan
Golflengte van het zichtbare licht
Daglengte
Tomorrow will be .
, % of the Moon is Illuminated

Extremen vandaag

State Highs State Lows

Community

WunderPhotos

Upload Photos

1,962,540 foto’s ge-upload!

WunderBlog® & News

Nearby

Luchtkwaliteit

  Luchtkwaliteit LK-index Verontreinigende stof
Not available.

Dikte sneeuw

Station Depth Geometrische hoogte

Aardbevingen

Stad Distance Mag. Time & Date
Minimum magnitude displayed is 2.5.

Watertemperatuur langs de kust

Plaats Temperatuur

Stations

Nabije weerstations

Locatie station Temp. Gevoelstemperatuur Dauwpunt Vochtigheid Wind Precip. Hoogte Geactualiseerd Type
                   

Watches & Warnings

There are currently no watches in effect.